Seiyu Maru — JD3189 — position and weather

sailwx.info

Track history (hours):
 
Tides and Currents Weather Stations Pressure Air Temp Water Temp Dewpoint Dewpoint Depression Visibility Wind Speed Wind Dir Waves Ship Positions

Seiyu Maru

Last reported at 2015-Jan-27 17:27 UTC. Time now 2015-Jan-30 02:39 UTC.
Position N 34°51' E 139°13'.

Length 75 m; draft 4.5 m.

Type: Cargo ship. MMSI: 431002433.

Date/timePositionNaut miles runAvg speedWind from/ knotsBaromVisibWave heightAir tempDewpointWater temp
2015-Jan-27 17:27N 34°51' E 139°13'1010.7
2015-Jan-27 16:31N 34°57' E 139°22'1111.0
2015-Jan-27 15:33N 35°03' E 139°33'1111.1
2015-Jan-27 14:33N 35°10' E 139°44'1110.8
2015-Jan-27 13:34N 35°20' E 139°43'6 6.2
2015-Jan-27 12:33N 35°23' E 139°49'2 0.1
2015-Jan-26 17:33N 35°21' E 139°51'0 0.5
2015-Jan-26 16:33N 35°21' E 139°51'0 0.0
2015-Jan-26 15:33N 35°21' E 139°51'0 0.0
2015-Jan-26 14:33N 35°21' E 139°51'0 0.0
2015-Jan-26 13:33N 35°21' E 139°51'0 0.1
2015-Jan-26 12:33N 35°21' E 139°51'0 0.0
2015-Jan-26 11:33N 35°21' E 139°51'0 0.0
2015-Jan-26 10:33N 35°21' E 139°51'0 0.0
2015-Jan-26 09:33N 35°21' E 139°51'0 0.0
2015-Jan-26 08:32N 35°21' E 139°51'0 0.0
2015-Jan-26 07:33N 35°21' E 139°51'0 0.0
2015-Jan-26 06:33N 35°21' E 139°51'0 0.0
2015-Jan-26 05:32N 35°21' E 139°51'0 0.0
2015-Jan-26 04:33N 35°21' E 139°51'5 5.3
2015-Jan-26 03:33N 35°27' E 139°52'14 0.6
2015-Jan-25 04:15N 35°40' E 139°57'6 8.1
2015-Jan-25 03:30N 35°34' E 139°55'1111.4
2015-Jan-25 02:33N 35°27' E 139°45'4 4.5
2015-Jan-25 01:33N 35°29' E 139°39'0 0.0
2015-Jan-25 00:33N 35°29' E 139°39'0 0.0
2015-Jan-24 23:33N 35°29' E 139°39'0 0.0
2015-Jan-24 05:32N 35°29' E 139°39'3 3.2
2015-Jan-24 04:33N 35°27' E 139°42'0 0.0
2015-Jan-24 03:30N 35°27' E 139°42'0 0.0
2015-Jan-24 02:33N 35°27' E 139°42'0 0.0
2015-Jan-24 01:33N 35°27' E 139°42'0 0.0
2015-Jan-24 00:33N 35°27' E 139°42'8 8.4
2015-Jan-23 23:33N 35°18' E 139°44'1010.3
2015-Jan-23 22:33N 35°08' E 139°46'1010.4
2015-Jan-23 21:33N 35°00' E 139°37'  
Track history (hours):
 
Tides and Currents Weather Stations Pressure Air Temp Water Temp Dewpoint Dewpoint Depression Visibility Wind Speed Wind Dir Waves Ship Positions

Seiyu Maru

Last reported at 2015-Jan-27 17:27 UTC. Time now 2015-Jan-30 02:39 UTC.
Position N 34°51' E 139°13'.

Length 75 m; draft 4.5 m.

Type: Cargo ship. MMSI: 431002433.

Date/timePositionNaut miles runAvg speedWind from/ knotsBaromVisibWave heightAir tempDewpointWater temp
2015-Jan-27 17:27N 34°51' E 139°13'1010.7
2015-Jan-27 16:31N 34°57' E 139°22'1111.0
2015-Jan-27 15:33N 35°03' E 139°33'1111.1
2015-Jan-27 14:33N 35°10' E 139°44'1110.8
2015-Jan-27 13:34N 35°20' E 139°43'6 6.2
2015-Jan-27 12:33N 35°23' E 139°49'2 0.1
2015-Jan-26 17:33N 35°21' E 139°51'0 0.5
2015-Jan-26 16:33N 35°21' E 139°51'0 0.0
2015-Jan-26 15:33N 35°21' E 139°51'0 0.0
2015-Jan-26 14:33N 35°21' E 139°51'0 0.0
2015-Jan-26 13:33N 35°21' E 139°51'0 0.1
2015-Jan-26 12:33N 35°21' E 139°51'0 0.0
2015-Jan-26 11:33N 35°21' E 139°51'0 0.0
2015-Jan-26 10:33N 35°21' E 139°51'0 0.0
2015-Jan-26 09:33N 35°21' E 139°51'0 0.0
2015-Jan-26 08:32N 35°21' E 139°51'0 0.0
2015-Jan-26 07:33N 35°21' E 139°51'0 0.0
2015-Jan-26 06:33N 35°21' E 139°51'0 0.0
2015-Jan-26 05:32N 35°21' E 139°51'0 0.0
2015-Jan-26 04:33N 35°21' E 139°51'5 5.3
2015-Jan-26 03:33N 35°27' E 139°52'14 0.6
2015-Jan-25 04:15N 35°40' E 139°57'6 8.1
2015-Jan-25 03:30N 35°34' E 139°55'1111.4
2015-Jan-25 02:33N 35°27' E 139°45'4 4.5
2015-Jan-25 01:33N 35°29' E 139°39'0 0.0
2015-Jan-25 00:33N 35°29' E 139°39'0 0.0
2015-Jan-24 23:33N 35°29' E 139°39'0 0.0
2015-Jan-24 05:32N 35°29' E 139°39'3 3.2
2015-Jan-24 04:33N 35°27' E 139°42'0 0.0
2015-Jan-24 03:30N 35°27' E 139°42'0 0.0
2015-Jan-24 02:33N 35°27' E 139°42'0 0.0
2015-Jan-24 01:33N 35°27' E 139°42'0 0.0
2015-Jan-24 00:33N 35°27' E 139°42'8 8.4
2015-Jan-23 23:33N 35°18' E 139°44'1010.3
2015-Jan-23 22:33N 35°08' E 139°46'1010.4
2015-Jan-23 21:33N 35°00' E 139°37'  

Dump ship's entire track history